sensor_id;sensor_type;location;lat;lon;timestamp;P1;durP1;ratioP1;P2;durP2;ratioP2
76336;SDS011;65157;50.082;18.178;2023-02-15T00:01:48;37.90;;;16.80;;
76336;SDS011;65157;50.082;18.178;2023-02-15T00:04:16;34.80;;;15.30;;
76336;SDS011;65157;50.082;18.178;2023-02-15T00:06:45;39.40;;;16.80;;
76336;SDS011;65157;50.082;18.178;2023-02-15T00:09:11;35.90;;;16.30;;
76336;SDS011;65157;50.082;18.178;2023-02-15T00:11:39;38.30;;;16.00;;
76336;SDS011;65157;50.082;18.178;2023-02-15T00:14:10;41.00;;;16.70;;
76336;SDS011;65157;50.082;18.178;2023-02-15T00:16:39;38.10;;;16.30;;
76336;SDS011;65157;50.082;18.178;2023-02-15T00:19:08;37.20;;;16.50;;
76336;SDS011;65157;50.082;18.178;2023-02-15T00:21:36;39.90;;;17.30;;
76336;SDS011;65157;50.082;18.178;2023-02-15T00:24:04;23.50;;;11.70;;
76336;SDS011;65157;50.082;18.178;2023-02-15T00:26:33;29.90;;;13.80;;
76336;SDS011;65157;50.082;18.178;2023-02-15T00:28:59;33.40;;;13.70;;
76336;SDS011;65157;50.082;18.178;2023-02-15T00:31:27;37.60;;;16.80;;
76336;SDS011;65157;50.082;18.178;2023-02-15T00:33:55;36.90;;;15.80;;
76336;SDS011;65157;50.082;18.178;2023-02-15T00:36:21;38.50;;;16.70;;
76336;SDS011;65157;50.082;18.178;2023-02-15T00:38:48;33.40;;;15.80;;
76336;SDS011;65157;50.082;18.178;2023-02-15T00:41:14;35.40;;;14.60;;
76336;SDS011;65157;50.082;18.178;2023-02-15T00:43:41;35.10;;;15.30;;
76336;SDS011;65157;50.082;18.178;2023-02-15T00:46:08;34.00;;;15.00;;
76336;SDS011;65157;50.082;18.178;2023-02-15T00:48:34;40.80;;;16.10;;
76336;SDS011;65157;50.082;18.178;2023-02-15T00:51:01;36.30;;;15.00;;
76336;SDS011;65157;50.082;18.178;2023-02-15T00:53:28;39.90;;;16.50;;
76336;SDS011;65157;50.082;18.178;2023-02-15T00:55:54;40.00;;;15.30;;
76336;SDS011;65157;50.082;18.178;2023-02-15T00:58:21;41.40;;;17.90;;
76336;SDS011;65157;50.082;18.178;2023-02-15T01:00:48;37.50;;;16.20;;
76336;SDS011;65157;50.082;18.178;2023-02-15T01:03:16;36.40;;;16.00;;
76336;SDS011;65157;50.082;18.178;2023-02-15T01:05:43;43.50;;;17.80;;
76336;SDS011;65157;50.082;18.178;2023-02-15T01:08:10;31.50;;;14.30;;
76336;SDS011;65157;50.082;18.178;2023-02-15T01:10:37;36.70;;;15.20;;
76336;SDS011;65157;50.082;18.178;2023-02-15T01:13:04;35.40;;;15.60;;
76336;SDS011;65157;50.082;18.178;2023-02-15T01:15:30;36.70;;;15.90;;
76336;SDS011;65157;50.082;18.178;2023-02-15T01:18:01;39.00;;;15.00;;
76336;SDS011;65157;50.082;18.178;2023-02-15T01:20:28;33.80;;;15.30;;
76336;SDS011;65157;50.082;18.178;2023-02-15T01:22:57;37.70;;;16.00;;
76336;SDS011;65157;50.082;18.178;2023-02-15T01:25:24;36.30;;;15.90;;
76336;SDS011;65157;50.082;18.178;2023-02-15T01:27:50;34.20;;;14.30;;
76336;SDS011;65157;50.082;18.178;2023-02-15T01:30:17;36.40;;;14.60;;
76336;SDS011;65157;50.082;18.178;2023-02-15T01:32:44;34.80;;;15.70;;
76336;SDS011;65157;50.082;18.178;2023-02-15T01:35:10;32.90;;;14.70;;
76336;SDS011;65157;50.082;18.178;2023-02-15T01:37:37;32.50;;;14.20;;
76336;SDS011;65157;50.082;18.178;2023-02-15T01:40:05;39.90;;;16.50;;
76336;SDS011;65157;50.082;18.178;2023-02-15T01:42:37;42.30;;;16.80;;
76336;SDS011;65157;50.082;18.178;2023-02-15T01:45:05;45.00;;;17.20;;
76336;SDS011;65157;50.082;18.178;2023-02-15T01:47:46;35.40;;;14.80;;
76336;SDS011;65157;50.082;18.178;2023-02-15T01:58:44;41.60;;;16.10;;
76336;SDS011;65157;50.082;18.178;2023-02-15T02:01:12;41.60;;;14.90;;
76336;SDS011;65157;50.082;18.178;2023-02-15T02:03:44;41.40;;;16.10;;
76336;SDS011;65157;50.082;18.178;2023-02-15T02:06:23;40.70;;;17.30;;
76336;SDS011;65157;50.082;18.178;2023-02-15T02:11:17;36.90;;;14.90;;
76336;SDS011;65157;50.082;18.178;2023-02-15T02:13:44;38.50;;;15.50;;
76336;SDS011;65157;50.082;18.178;2023-02-15T02:16:22;36.10;;;16.30;;
76336;SDS011;65157;50.082;18.178;2023-02-15T02:24:28;39.60;;;16.00;;
76336;SDS011;65157;50.082;18.178;2023-02-15T02:30:11;39.00;;;15.90;;
76336;SDS011;65157;50.082;18.178;2023-02-15T02:35:48;39.60;;;16.20;;
76336;SDS011;65157;50.082;18.178;2023-02-15T02:38:28;38.40;;;17.00;;
76336;SDS011;65157;50.082;18.178;2023-02-15T02:44:28;41.20;;;17.50;;
76336;SDS011;65157;50.082;18.178;2023-02-15T02:49:11;44.30;;;18.20;;
76336;SDS011;65157;50.082;18.178;2023-02-15T02:51:38;40.10;;;16.30;;
76336;SDS011;65157;50.082;18.178;2023-02-15T02:54:05;43.90;;;17.90;;
76336;SDS011;65157;50.082;18.178;2023-02-15T02:56:40;41.90;;;18.30;;
76336;SDS011;65157;50.082;18.178;2023-02-15T02:59:45;43.40;;;17.00;;
76336;SDS011;65157;50.082;18.178;2023-02-15T03:02:09;41.30;;;17.10;;
76336;SDS011;65157;50.082;18.178;2023-02-15T03:04:43;41.80;;;17.30;;
76336;SDS011;65157;50.082;18.178;2023-02-15T03:07:20;41.20;;;17.70;;
76336;SDS011;65157;50.082;18.178;2023-02-15T03:09:49;44.30;;;19.00;;
76336;SDS011;65157;50.082;18.178;2023-02-15T03:14:55;44.10;;;18.00;;
76336;SDS011;65157;50.082;18.178;2023-02-15T03:17:26;42.00;;;16.80;;
76336;SDS011;65157;50.082;18.178;2023-02-15T03:19:55;45.40;;;18.10;;
76336;SDS011;65157;50.082;18.178;2023-02-15T03:22:34;54.40;;;21.80;;
76336;SDS011;65157;50.082;18.178;2023-02-15T03:30:47;49.50;;;20.90;;
76336;SDS011;65157;50.082;18.178;2023-02-15T03:33:18;46.70;;;20.20;;
76336;SDS011;65157;50.082;18.178;2023-02-15T03:35:52;47.80;;;19.60;;
76336;SDS011;65157;50.082;18.178;2023-02-15T03:38:25;47.60;;;19.00;;
76336;SDS011;65157;50.082;18.178;2023-02-15T03:41:00;43.90;;;17.90;;
76336;SDS011;65157;50.082;18.178;2023-02-15T03:49:06;46.80;;;19.30;;
76336;SDS011;65157;50.082;18.178;2023-02-15T03:51:37;41.80;;;17.90;;
76336;SDS011;65157;50.082;18.178;2023-02-15T03:54:15;39.90;;;17.90;;
76336;SDS011;65157;50.082;18.178;2023-02-15T03:56:45;43.10;;;18.10;;
76336;SDS011;65157;50.082;18.178;2023-02-15T03:59:11;45.60;;;18.90;;
76336;SDS011;65157;50.082;18.178;2023-02-15T04:04:18;47.90;;;21.70;;
76336;SDS011;65157;50.082;18.178;2023-02-15T04:06:46;49.90;;;21.30;;
76336;SDS011;65157;50.082;18.178;2023-02-15T04:09:13;51.30;;;22.30;;
76336;SDS011;65157;50.082;18.178;2023-02-15T04:11:40;49.10;;;20.80;;
76336;SDS011;65157;50.082;18.178;2023-02-15T04:14:06;54.80;;;22.00;;
76336;SDS011;65157;50.082;18.178;2023-02-15T04:16:33;45.30;;;20.30;;
76336;SDS011;65157;50.082;18.178;2023-02-15T04:18:59;50.10;;;21.40;;
76336;SDS011;65157;50.082;18.178;2023-02-15T04:21:27;49.10;;;20.90;;
76336;SDS011;65157;50.082;18.178;2023-02-15T04:23:55;43.00;;;19.30;;
76336;SDS011;65157;50.082;18.178;2023-02-15T04:26:21;55.80;;;19.90;;
76336;SDS011;65157;50.082;18.178;2023-02-15T04:28:48;44.80;;;19.90;;
76336;SDS011;65157;50.082;18.178;2023-02-15T04:31:15;47.40;;;19.90;;
76336;SDS011;65157;50.082;18.178;2023-02-15T04:33:42;48.20;;;19.10;;
76336;SDS011;65157;50.082;18.178;2023-02-15T04:36:08;47.70;;;20.30;;
76336;SDS011;65157;50.082;18.178;2023-02-15T04:38:35;42.90;;;18.20;;
76336;SDS011;65157;50.082;18.178;2023-02-15T04:41:02;43.80;;;19.10;;
76336;SDS011;65157;50.082;18.178;2023-02-15T04:43:29;46.10;;;19.70;;
76336;SDS011;65157;50.082;18.178;2023-02-15T04:45:55;48.60;;;18.70;;
76336;SDS011;65157;50.082;18.178;2023-02-15T04:48:22;46.60;;;17.80;;
76336;SDS011;65157;50.082;18.178;2023-02-15T04:50:49;40.80;;;17.50;;
76336;SDS011;65157;50.082;18.178;2023-02-15T04:53:16;41.40;;;16.80;;
76336;SDS011;65157;50.082;18.178;2023-02-15T04:55:43;46.00;;;19.20;;
76336;SDS011;65157;50.082;18.178;2023-02-15T04:58:09;42.00;;;18.80;;
76336;SDS011;65157;50.082;18.178;2023-02-15T05:00:36;48.30;;;20.20;;
76336;SDS011;65157;50.082;18.178;2023-02-15T05:03:02;46.50;;;18.40;;
76336;SDS011;65157;50.082;18.178;2023-02-15T05:05:29;45.30;;;20.00;;
76336;SDS011;65157;50.082;18.178;2023-02-15T05:07:56;43.40;;;18.80;;
76336;SDS011;65157;50.082;18.178;2023-02-15T05:10:23;41.70;;;17.10;;
76336;SDS011;65157;50.082;18.178;2023-02-15T05:12:49;47.40;;;20.10;;
76336;SDS011;65157;50.082;18.178;2023-02-15T05:15:16;47.60;;;18.60;;
76336;SDS011;65157;50.082;18.178;2023-02-15T05:17:43;43.70;;;20.10;;
76336;SDS011;65157;50.082;18.178;2023-02-15T05:20:12;49.00;;;21.00;;
76336;SDS011;65157;50.082;18.178;2023-02-15T05:22:39;44.00;;;19.90;;
76336;SDS011;65157;50.082;18.178;2023-02-15T05:25:06;48.30;;;20.40;;
76336;SDS011;65157;50.082;18.178;2023-02-15T05:27:34;47.90;;;19.60;;
76336;SDS011;65157;50.082;18.178;2023-02-15T05:30:01;46.10;;;20.90;;
76336;SDS011;65157;50.082;18.178;2023-02-15T05:32:28;47.00;;;20.60;;
76336;SDS011;65157;50.082;18.178;2023-02-15T05:34:54;46.00;;;19.90;;
76336;SDS011;65157;50.082;18.178;2023-02-15T05:37:21;46.20;;;19.70;;
76336;SDS011;65157;50.082;18.178;2023-02-15T05:39:47;46.20;;;20.40;;
76336;SDS011;65157;50.082;18.178;2023-02-15T05:42:14;46.30;;;20.30;;
76336;SDS011;65157;50.082;18.178;2023-02-15T05:44:40;42.50;;;19.70;;
76336;SDS011;65157;50.082;18.178;2023-02-15T05:47:07;42.70;;;18.10;;
76336;SDS011;65157;50.082;18.178;2023-02-15T05:49:33;44.50;;;19.30;;
76336;SDS011;65157;50.082;18.178;2023-02-15T05:52:00;48.00;;;19.10;;
76336;SDS011;65157;50.082;18.178;2023-02-15T05:54:27;45.30;;;18.40;;
76336;SDS011;65157;50.082;18.178;2023-02-15T05:56:54;45.10;;;19.50;;
76336;SDS011;65157;50.082;18.178;2023-02-15T05:59:21;45.50;;;19.30;;
76336;SDS011;65157;50.082;18.178;2023-02-15T06:01:48;59.30;;;23.90;;
76336;SDS011;65157;50.082;18.178;2023-02-15T06:04:14;69.50;;;27.40;;
76336;SDS011;65157;50.082;18.178;2023-02-15T06:06:41;74.10;;;29.20;;
76336;SDS011;65157;50.082;18.178;2023-02-15T06:09:07;80.80;;;30.80;;
76336;SDS011;65157;50.082;18.178;2023-02-15T06:11:39;84.40;;;31.90;;
76336;SDS011;65157;50.082;18.178;2023-02-15T06:14:06;92.00;;;33.00;;
76336;SDS011;65157;50.082;18.178;2023-02-15T06:16:32;84.90;;;31.10;;
76336;SDS011;65157;50.082;18.178;2023-02-15T06:18:59;75.60;;;29.10;;
76336;SDS011;65157;50.082;18.178;2023-02-15T06:21:26;73.80;;;28.20;;
76336;SDS011;65157;50.082;18.178;2023-02-15T06:23:52;70.70;;;28.20;;
76336;SDS011;65157;50.082;18.178;2023-02-15T06:26:19;67.30;;;25.30;;
76336;SDS011;65157;50.082;18.178;2023-02-15T06:28:45;63.20;;;26.00;;
76336;SDS011;65157;50.082;18.178;2023-02-15T06:31:12;69.00;;;27.30;;
76336;SDS011;65157;50.082;18.178;2023-02-15T06:33:39;65.20;;;25.60;;
76336;SDS011;65157;50.082;18.178;2023-02-15T06:36:05;63.70;;;25.30;;
76336;SDS011;65157;50.082;18.178;2023-02-15T06:38:32;58.70;;;22.30;;
76336;SDS011;65157;50.082;18.178;2023-02-15T06:40:59;51.40;;;21.30;;
76336;SDS011;65157;50.082;18.178;2023-02-15T06:43:25;51.40;;;20.70;;
76336;SDS011;65157;50.082;18.178;2023-02-15T06:45:52;45.40;;;18.50;;
76336;SDS011;65157;50.082;18.178;2023-02-15T06:48:18;49.70;;;19.30;;
76336;SDS011;65157;50.082;18.178;2023-02-15T06:50:45;40.90;;;18.20;;
76336;SDS011;65157;50.082;18.178;2023-02-15T06:53:12;43.60;;;19.80;;
76336;SDS011;65157;50.082;18.178;2023-02-15T06:55:38;52.30;;;21.30;;
76336;SDS011;65157;50.082;18.178;2023-02-15T06:58:05;48.70;;;20.80;;
76336;SDS011;65157;50.082;18.178;2023-02-15T07:00:31;55.60;;;22.60;;
76336;SDS011;65157;50.082;18.178;2023-02-15T07:02:58;49.70;;;21.10;;
76336;SDS011;65157;50.082;18.178;2023-02-15T07:05:26;52.50;;;22.40;;
76336;SDS011;65157;50.082;18.178;2023-02-15T07:07:53;62.10;;;25.00;;
76336;SDS011;65157;50.082;18.178;2023-02-15T07:10:19;62.30;;;25.70;;
76336;SDS011;65157;50.082;18.178;2023-02-15T07:12:46;60.40;;;25.40;;
76336;SDS011;65157;50.082;18.178;2023-02-15T07:15:14;71.00;;;26.80;;
76336;SDS011;65157;50.082;18.178;2023-02-15T07:17:43;66.00;;;28.70;;
76336;SDS011;65157;50.082;18.178;2023-02-15T07:20:11;58.30;;;26.30;;
76336;SDS011;65157;50.082;18.178;2023-02-15T07:22:40;67.50;;;28.00;;
76336;SDS011;65157;50.082;18.178;2023-02-15T07:25:07;69.60;;;28.90;;
76336;SDS011;65157;50.082;18.178;2023-02-15T07:27:35;65.80;;;26.90;;
76336;SDS011;65157;50.082;18.178;2023-02-15T07:30:02;70.50;;;27.70;;
76336;SDS011;65157;50.082;18.178;2023-02-15T07:32:31;73.50;;;29.70;;
76336;SDS011;65157;50.082;18.178;2023-02-15T07:34:58;79.00;;;31.90;;
76336;SDS011;65157;50.082;18.178;2023-02-15T07:37:26;70.80;;;28.20;;
76336;SDS011;65157;50.082;18.178;2023-02-15T07:39:53;70.70;;;30.30;;
76336;SDS011;65157;50.082;18.178;2023-02-15T07:42:20;68.20;;;28.30;;
76336;SDS011;65157;50.082;18.178;2023-02-15T07:44:47;73.00;;;29.90;;
76336;SDS011;65157;50.082;18.178;2023-02-15T07:47:13;81.70;;;31.40;;
76336;SDS011;65157;50.082;18.178;2023-02-15T07:49:40;76.80;;;31.50;;
76336;SDS011;65157;50.082;18.178;2023-02-15T07:52:06;75.40;;;31.00;;
76336;SDS011;65157;50.082;18.178;2023-02-15T07:54:33;83.50;;;33.20;;
76336;SDS011;65157;50.082;18.178;2023-02-15T07:57:00;78.40;;;30.20;;
76336;SDS011;65157;50.082;18.178;2023-02-15T07:59:28;67.00;;;30.00;;
76336;SDS011;65157;50.082;18.178;2023-02-15T08:02:01;75.60;;;29.90;;
76336;SDS011;65157;50.082;18.178;2023-02-15T08:04:28;75.10;;;30.70;;
76336;SDS011;65157;50.082;18.178;2023-02-15T08:06:54;63.60;;;26.80;;
76336;SDS011;65157;50.082;18.178;2023-02-15T08:09:21;65.50;;;26.40;;
76336;SDS011;65157;50.082;18.178;2023-02-15T08:11:48;61.80;;;27.10;;
76336;SDS011;65157;50.082;18.178;2023-02-15T08:14:19;65.60;;;28.30;;
76336;SDS011;65157;50.082;18.178;2023-02-15T08:16:47;59.60;;;24.30;;
76336;SDS011;65157;50.082;18.178;2023-02-15T08:19:22;63.20;;;25.50;;
76336;SDS011;65157;50.082;18.178;2023-02-15T08:21:54;68.40;;;30.00;;
76336;SDS011;65157;50.082;18.178;2023-02-15T08:24:22;66.50;;;27.40;;
76336;SDS011;65157;50.082;18.178;2023-02-15T08:26:50;66.90;;;27.70;;
76336;SDS011;65157;50.082;18.178;2023-02-15T08:29:19;60.80;;;26.40;;
76336;SDS011;65157;50.082;18.178;2023-02-15T08:31:48;60.80;;;24.30;;
76336;SDS011;65157;50.082;18.178;2023-02-15T08:34:16;62.50;;;26.60;;
76336;SDS011;65157;50.082;18.178;2023-02-15T08:36:44;65.50;;;26.60;;
76336;SDS011;65157;50.082;18.178;2023-02-15T08:39:11;59.30;;;25.70;;
76336;SDS011;65157;50.082;18.178;2023-02-15T08:41:39;58.30;;;23.20;;
76336;SDS011;65157;50.082;18.178;2023-02-15T08:44:08;60.50;;;25.40;;
76336;SDS011;65157;50.082;18.178;2023-02-15T08:46:36;64.80;;;25.90;;
76336;SDS011;65157;50.082;18.178;2023-02-15T08:49:09;59.10;;;23.10;;
76336;SDS011;65157;50.082;18.178;2023-02-15T08:51:38;64.10;;;25.50;;
76336;SDS011;65157;50.082;18.178;2023-02-15T08:54:06;61.40;;;25.30;;
76336;SDS011;65157;50.082;18.178;2023-02-15T08:56:35;63.50;;;27.60;;
76336;SDS011;65157;50.082;18.178;2023-02-15T08:59:04;66.60;;;26.80;;
76336;SDS011;65157;50.082;18.178;2023-02-15T09:01:32;62.60;;;25.80;;
76336;SDS011;65157;50.082;18.178;2023-02-15T09:04:01;66.00;;;26.80;;
76336;SDS011;65157;50.082;18.178;2023-02-15T09:06:30;54.30;;;22.60;;
76336;SDS011;65157;50.082;18.178;2023-02-15T09:08:57;60.10;;;25.40;;
76336;SDS011;65157;50.082;18.178;2023-02-15T09:11:25;60.50;;;26.90;;
76336;SDS011;65157;50.082;18.178;2023-02-15T09:13:55;69.50;;;28.10;;
76336;SDS011;65157;50.082;18.178;2023-02-15T09:16:25;59.90;;;26.90;;
76336;SDS011;65157;50.082;18.178;2023-02-15T09:18:53;60.80;;;24.00;;
76336;SDS011;65157;50.082;18.178;2023-02-15T09:21:21;57.70;;;23.70;;
76336;SDS011;65157;50.082;18.178;2023-02-15T09:23:49;52.20;;;21.90;;
76336;SDS011;65157;50.082;18.178;2023-02-15T09:26:19;56.10;;;22.60;;
76336;SDS011;65157;50.082;18.178;2023-02-15T09:28:47;52.10;;;20.90;;
76336;SDS011;65157;50.082;18.178;2023-02-15T09:31:18;53.00;;;21.50;;
76336;SDS011;65157;50.082;18.178;2023-02-15T09:33:47;47.50;;;21.90;;
76336;SDS011;65157;50.082;18.178;2023-02-15T09:36:22;50.30;;;21.10;;
76336;SDS011;65157;50.082;18.178;2023-02-15T09:49:10;42.50;;;20.70;;
76336;SDS011;65157;50.082;18.178;2023-02-15T09:51:58;46.70;;;19.00;;
76336;SDS011;65157;50.082;18.178;2023-02-15T09:59:55;50.90;;;20.90;;
76336;SDS011;65157;50.082;18.178;2023-02-15T10:02:32;47.30;;;20.50;;
76336;SDS011;65157;50.082;18.178;2023-02-15T10:08:05;39.00;;;18.60;;
76336;SDS011;65157;50.082;18.178;2023-02-15T10:13:24;41.70;;;18.60;;
76336;SDS011;65157;50.082;18.178;2023-02-15T10:16:01;23.10;;;10.30;;
76336;SDS011;65157;50.082;18.178;2023-02-15T10:18:42;19.90;;;10.50;;
76336;SDS011;65157;50.082;18.178;2023-02-15T10:21:23;22.00;;;9.70;;
76336;SDS011;65157;50.082;18.178;2023-02-15T10:27:12;21.90;;;9.90;;
76336;SDS011;65157;50.082;18.178;2023-02-15T10:29:45;15.40;;;7.60;;
76336;SDS011;65157;50.082;18.178;2023-02-15T10:32:23;16.80;;;7.90;;
76336;SDS011;65157;50.082;18.178;2023-02-15T10:35:03;15.00;;;7.70;;
76336;SDS011;65157;50.082;18.178;2023-02-15T10:40:59;9.90;;;5.30;;
76336;SDS011;65157;50.082;18.178;2023-02-15T10:47:18;10.20;;;6.00;;
76336;SDS011;65157;50.082;18.178;2023-02-15T10:53:04;12.20;;;5.50;;
76336;SDS011;65157;50.082;18.178;2023-02-15T11:06:30;6.10;;;4.00;;
76336;SDS011;65157;50.082;18.178;2023-02-15T11:09:01;9.40;;;5.10;;
76336;SDS011;65157;50.082;18.178;2023-02-15T11:11:35;10.80;;;6.40;;
76336;SDS011;65157;50.082;18.178;2023-02-15T11:14:09;7.90;;;5.80;;
76336;SDS011;65157;50.082;18.178;2023-02-15T11:16:40;9.10;;;5.40;;
76336;SDS011;65157;50.082;18.178;2023-02-15T11:19:31;10.00;;;6.20;;
76336;SDS011;65157;50.082;18.178;2023-02-15T11:22:02;10.60;;;6.00;;
76336;SDS011;65157;50.082;18.178;2023-02-15T11:24:33;7.60;;;4.40;;
76336;SDS011;65157;50.082;18.178;2023-02-15T11:32:25;8.60;;;5.80;;
76336;SDS011;65157;50.082;18.178;2023-02-15T11:37:45;7.40;;;4.30;;
76336;SDS011;65157;50.082;18.178;2023-02-15T11:40:25;11.60;;;7.10;;
76336;SDS011;65157;50.082;18.178;2023-02-15T11:42:55;9.60;;;5.60;;
76336;SDS011;65157;50.082;18.178;2023-02-15T11:45:29;10.90;;;7.00;;
76336;SDS011;65157;50.082;18.178;2023-02-15T11:47:57;11.50;;;6.80;;
76336;SDS011;65157;50.082;18.178;2023-02-15T11:50:26;10.40;;;6.60;;
76336;SDS011;65157;50.082;18.178;2023-02-15T11:52:59;11.00;;;6.30;;
76336;SDS011;65157;50.082;18.178;2023-02-15T11:55:30;11.80;;;5.80;;
76336;SDS011;65157;50.082;18.178;2023-02-15T11:57:59;9.20;;;5.60;;
76336;SDS011;65157;50.082;18.178;2023-02-15T12:00:32;10.60;;;6.90;;
76336;SDS011;65157;50.082;18.178;2023-02-15T12:03:11;11.70;;;7.60;;
76336;SDS011;65157;50.082;18.178;2023-02-15T12:05:43;8.70;;;5.40;;
76336;SDS011;65157;50.082;18.178;2023-02-15T12:08:15;10.50;;;6.50;;
76336;SDS011;65157;50.082;18.178;2023-02-15T12:11:06;12.20;;;7.10;;
76336;SDS011;65157;50.082;18.178;2023-02-15T12:13:35;10.40;;;5.60;;
76336;SDS011;65157;50.082;18.178;2023-02-15T12:16:05;10.20;;;5.90;;
76336;SDS011;65157;50.082;18.178;2023-02-15T12:21:15;8.50;;;4.60;;
76336;SDS011;65157;50.082;18.178;2023-02-15T12:23:52;10.70;;;6.60;;
76336;SDS011;65157;50.082;18.178;2023-02-15T12:26:25;9.30;;;5.90;;
76336;SDS011;65157;50.082;18.178;2023-02-15T12:29:01;10.60;;;6.00;;
76336;SDS011;65157;50.082;18.178;2023-02-15T12:31:52;8.90;;;5.20;;
76336;SDS011;65157;50.082;18.178;2023-02-15T12:34:21;6.10;;;3.40;;
76336;SDS011;65157;50.082;18.178;2023-02-15T12:36:52;10.80;;;5.70;;
76336;SDS011;65157;50.082;18.178;2023-02-15T12:39:21;8.20;;;5.70;;
76336;SDS011;65157;50.082;18.178;2023-02-15T12:44:21;9.30;;;4.90;;
76336;SDS011;65157;50.082;18.178;2023-02-15T12:46:56;9.50;;;6.10;;
76336;SDS011;65157;50.082;18.178;2023-02-15T12:49:23;11.00;;;6.00;;
76336;SDS011;65157;50.082;18.178;2023-02-15T12:51:56;7.20;;;4.90;;
76336;SDS011;65157;50.082;18.178;2023-02-15T12:54:35;8.50;;;5.70;;
76336;SDS011;65157;50.082;18.178;2023-02-15T12:57:28;10.80;;;6.40;;
76336;SDS011;65157;50.082;18.178;2023-02-15T12:59:58;8.60;;;5.30;;
76336;SDS011;65157;50.082;18.178;2023-02-15T13:02:41;12.60;;;6.90;;
76336;SDS011;65157;50.082;18.178;2023-02-15T13:05:18;8.70;;;5.50;;
76336;SDS011;65157;50.082;18.178;2023-02-15T13:07:51;4.80;;;3.60;;
76336;SDS011;65157;50.082;18.178;2023-02-15T13:10:23;6.70;;;4.20;;
76336;SDS011;65157;50.082;18.178;2023-02-15T13:13:01;7.30;;;4.20;;
76336;SDS011;65157;50.082;18.178;2023-02-15T13:15:37;9.00;;;5.00;;
76336;SDS011;65157;50.082;18.178;2023-02-15T13:18:12;10.10;;;5.60;;
76336;SDS011;65157;50.082;18.178;2023-02-15T13:20:44;6.50;;;3.10;;
76336;SDS011;65157;50.082;18.178;2023-02-15T13:25:58;9.60;;;6.10;;
76336;SDS011;65157;50.082;18.178;2023-02-15T13:28:34;8.40;;;5.40;;
76336;SDS011;65157;50.082;18.178;2023-02-15T13:31:19;8.30;;;5.40;;
76336;SDS011;65157;50.082;18.178;2023-02-15T13:33:50;5.10;;;3.00;;
76336;SDS011;65157;50.082;18.178;2023-02-15T13:42:11;7.10;;;4.20;;
76336;SDS011;65157;50.082;18.178;2023-02-15T13:44:47;13.90;;;7.60;;
76336;SDS011;65157;50.082;18.178;2023-02-15T13:47:42;9.70;;;5.80;;
76336;SDS011;65157;50.082;18.178;2023-02-15T13:53:02;13.90;;;7.30;;
76336;SDS011;65157;50.082;18.178;2023-02-15T13:58:29;13.30;;;7.90;;
76336;SDS011;65157;50.082;18.178;2023-02-15T14:07:40;13.20;;;7.70;;
76336;SDS011;65157;50.082;18.178;2023-02-15T14:21:28;17.80;;;9.00;;
76336;SDS011;65157;50.082;18.178;2023-02-15T14:24:21;19.50;;;9.00;;
76336;SDS011;65157;50.082;18.178;2023-02-15T14:29:56;14.60;;;7.60;;
76336;SDS011;65157;50.082;18.178;2023-02-15T14:32:27;16.30;;;8.80;;
76336;SDS011;65157;50.082;18.178;2023-02-15T14:35:02;13.30;;;7.90;;
76336;SDS011;65157;50.082;18.178;2023-02-15T14:40:32;18.30;;;8.80;;
76336;SDS011;65157;50.082;18.178;2023-02-15T14:43:21;17.10;;;8.40;;
76336;SDS011;65157;50.082;18.178;2023-02-15T14:46:07;16.70;;;8.20;;
76336;SDS011;65157;50.082;18.178;2023-02-15T14:48:46;16.50;;;8.60;;
76336;SDS011;65157;50.082;18.178;2023-02-15T14:54:07;17.10;;;8.40;;
76336;SDS011;65157;50.082;18.178;2023-02-15T14:59:11;14.90;;;8.50;;
76336;SDS011;65157;50.082;18.178;2023-02-15T15:07:49;18.00;;;8.60;;
76336;SDS011;65157;50.082;18.178;2023-02-15T15:10:32;15.60;;;8.20;;
76336;SDS011;65157;50.082;18.178;2023-02-15T15:18:57;16.60;;;9.10;;
76336;SDS011;65157;50.082;18.178;2023-02-15T15:30:10;19.00;;;10.30;;
76336;SDS011;65157;50.082;18.178;2023-02-15T15:41:18;25.90;;;12.00;;
76336;SDS011;65157;50.082;18.178;2023-02-15T15:49:39;26.50;;;11.90;;
76336;SDS011;65157;50.082;18.178;2023-02-15T15:52:16;25.00;;;11.70;;
76336;SDS011;65157;50.082;18.178;2023-02-15T15:54:47;26.20;;;11.50;;
76336;SDS011;65157;50.082;18.178;2023-02-15T15:57:38;25.80;;;13.10;;
76336;SDS011;65157;50.082;18.178;2023-02-15T16:00:16;25.70;;;12.00;;
76336;SDS011;65157;50.082;18.178;2023-02-15T16:02:54;26.40;;;11.80;;
76336;SDS011;65157;50.082;18.178;2023-02-15T16:05:20;25.00;;;11.90;;
76336;SDS011;65157;50.082;18.178;2023-02-15T16:07:47;19.80;;;9.70;;
76336;SDS011;65157;50.082;18.178;2023-02-15T16:10:22;21.50;;;9.00;;
76336;SDS011;65157;50.082;18.178;2023-02-15T16:12:50;26.40;;;11.50;;
76336;SDS011;65157;50.082;18.178;2023-02-15T16:15:20;26.40;;;12.10;;
76336;SDS011;65157;50.082;18.178;2023-02-15T16:17:50;30.70;;;13.50;;
76336;SDS011;65157;50.082;18.178;2023-02-15T16:20:30;32.40;;;14.60;;
76336;SDS011;65157;50.082;18.178;2023-02-15T16:23:07;36.00;;;15.00;;
76336;SDS011;65157;50.082;18.178;2023-02-15T16:29:01;34.00;;;14.80;;
76336;SDS011;65157;50.082;18.178;2023-02-15T16:31:39;34.00;;;14.80;;
76336;SDS011;65157;50.082;18.178;2023-02-15T16:34:09;36.50;;;16.00;;
76336;SDS011;65157;50.082;18.178;2023-02-15T16:36:42;39.20;;;15.60;;
76336;SDS011;65157;50.082;18.178;2023-02-15T16:39:12;37.10;;;15.50;;
76336;SDS011;65157;50.082;18.178;2023-02-15T16:41:44;32.50;;;13.60;;
76336;SDS011;65157;50.082;18.178;2023-02-15T16:44:16;31.20;;;13.00;;
76336;SDS011;65157;50.082;18.178;2023-02-15T16:46:51;33.40;;;14.70;;
76336;SDS011;65157;50.082;18.178;2023-02-15T16:49:21;33.10;;;14.00;;
76336;SDS011;65157;50.082;18.178;2023-02-15T16:51:54;30.80;;;13.80;;
76336;SDS011;65157;50.082;18.178;2023-02-15T16:54:24;32.20;;;14.60;;
76336;SDS011;65157;50.082;18.178;2023-02-15T16:56:53;28.60;;;12.60;;
76336;SDS011;65157;50.082;18.178;2023-02-15T16:59:26;30.10;;;12.10;;
76336;SDS011;65157;50.082;18.178;2023-02-15T17:01:58;15.80;;;7.60;;
76336;SDS011;65157;50.082;18.178;2023-02-15T17:06:58;19.70;;;9.00;;
76336;SDS011;65157;50.082;18.178;2023-02-15T17:09:32;27.30;;;12.50;;
76336;SDS011;65157;50.082;18.178;2023-02-15T17:12:00;32.80;;;14.30;;
76336;SDS011;65157;50.082;18.178;2023-02-15T17:14:31;27.40;;;12.10;;
76336;SDS011;65157;50.082;18.178;2023-02-15T17:17:01;30.00;;;13.40;;
76336;SDS011;65157;50.082;18.178;2023-02-15T17:19:44;32.50;;;15.10;;
76336;SDS011;65157;50.082;18.178;2023-02-15T17:22:22;34.10;;;14.80;;
76336;SDS011;65157;50.082;18.178;2023-02-15T17:24:57;33.20;;;14.60;;
76336;SDS011;65157;50.082;18.178;2023-02-15T17:27:26;31.40;;;14.00;;
76336;SDS011;65157;50.082;18.178;2023-02-15T17:29:58;33.80;;;14.70;;
76336;SDS011;65157;50.082;18.178;2023-02-15T17:32:28;25.50;;;10.60;;
76336;SDS011;65157;50.082;18.178;2023-02-15T17:35:16;31.00;;;13.60;;
76336;SDS011;65157;50.082;18.178;2023-02-15T17:37:49;19.20;;;9.10;;
76336;SDS011;65157;50.082;18.178;2023-02-15T17:40:23;31.50;;;14.50;;
76336;SDS011;65157;50.082;18.178;2023-02-15T17:42:52;30.70;;;12.50;;